createdAt,value
2022-12-22T00:00:50.909Z,76.63
2022-12-22T00:03:36.609Z,77.03
2022-12-22T00:06:22.536Z,79.27
2022-12-22T00:09:08.312Z,63.70
2022-12-22T00:11:54.158Z,76.57
2022-12-22T00:14:39.735Z,102.20
2022-12-22T00:17:38.551Z,97.73
2022-12-22T00:20:32.041Z,78.03
2022-12-22T00:23:18.028Z,70.93
2022-12-22T00:26:03.765Z,60.97
2022-12-22T00:28:49.905Z,59.90
2022-12-22T00:31:36.061Z,61.83
2022-12-22T00:34:22.512Z,69.70
2022-12-22T00:37:08.353Z,96.93
2022-12-22T00:39:54.277Z,89.77
2022-12-22T00:42:40.240Z,88.80
2022-12-22T00:45:26.422Z,74.67
2022-12-22T00:48:12.119Z,72.60
2022-12-22T00:50:58.040Z,59.63
2022-12-22T00:53:43.646Z,57.17
2022-12-22T00:56:29.779Z,56.53
2022-12-22T00:59:17.591Z,58.83
2022-12-22T01:02:03.588Z,56.97
2022-12-22T01:04:49.381Z,61.57
2022-12-22T01:07:37.960Z,79.47
2022-12-22T01:10:23.920Z,70.07
2022-12-22T01:13:09.804Z,78.40
2022-12-22T01:15:55.741Z,72.80
2022-12-22T01:18:41.192Z,66.67
2022-12-22T01:21:28.393Z,81.03
2022-12-22T01:24:14.189Z,68.93
2022-12-22T01:27:03.065Z,70.17
2022-12-22T01:29:48.701Z,61.00
2022-12-22T01:32:34.417Z,83.97
2022-12-22T01:35:20.239Z,173.93
2022-12-22T01:38:06.240Z,139.17
2022-12-22T01:40:52.165Z,116.53
2022-12-22T01:43:44.901Z,99.53
2022-12-22T01:47:09.380Z,78.00
2022-12-22T01:50:00.741Z,63.97
2022-12-22T01:52:51.824Z,60.83
2022-12-22T01:55:42.469Z,55.90
2022-12-22T01:58:45.250Z,53.03
2022-12-22T02:01:31.625Z,52.97
2022-12-22T02:04:18.116Z,48.33
2022-12-22T02:07:05.623Z,51.97
2022-12-22T02:10:23.139Z,48.50
2022-12-22T02:13:27.433Z,55.47
2022-12-22T02:16:30.266Z,54.33
2022-12-22T02:19:26.665Z,61.70
2022-12-22T02:22:23.374Z,55.00
2022-12-22T02:25:21.863Z,42.63
2022-12-22T02:28:11.776Z,47.20
2022-12-22T02:30:58.776Z,46.50
2022-12-22T02:33:44.456Z,49.83
2022-12-22T02:36:49.109Z,48.47
2022-12-22T02:39:37.700Z,46.13
2022-12-22T02:42:29.468Z,49.13
2022-12-22T02:45:35.824Z,43.63
2022-12-22T02:48:36.569Z,43.60
2022-12-22T02:51:25.614Z,40.57
2022-12-22T02:54:12.656Z,41.07
2022-12-22T02:56:59.641Z,38.50
2022-12-22T02:59:45.439Z,62.80
2022-12-22T03:02:32.742Z,48.57
2022-12-22T03:05:18.855Z,39.70
2022-12-22T03:08:08.262Z,45.03
2022-12-22T03:10:55.836Z,42.77
2022-12-22T03:13:41.399Z,37.47
2022-12-22T03:16:28.659Z,35.87
2022-12-22T03:19:14.453Z,39.40
2022-12-22T03:22:00.284Z,37.17
2022-12-22T03:24:46.169Z,41.77
2022-12-22T03:27:13.576Z,42.60
2022-12-22T03:29:40.838Z,42.23
2022-12-22T03:32:08.037Z,37.27
2022-12-22T03:34:35.183Z,35.87
2022-12-22T03:37:02.385Z,37.93
2022-12-22T03:39:32.304Z,41.33
2022-12-22T03:42:18.515Z,48.23
2022-12-22T03:45:04.006Z,46.60
2022-12-22T03:47:32.629Z,47.53
2022-12-22T03:49:59.749Z,51.83
2022-12-22T03:52:26.969Z,36.43
2022-12-22T03:54:54.167Z,35.73
2022-12-22T03:57:21.306Z,37.07
2022-12-22T03:59:48.803Z,33.37
2022-12-22T04:02:16.071Z,32.43
2022-12-22T04:04:43.287Z,30.33
2022-12-22T04:07:10.749Z,30.97
2022-12-22T04:09:57.817Z,32.40
2022-12-22T04:12:44.379Z,26.47
2022-12-22T04:15:11.488Z,30.63
2022-12-22T04:17:38.615Z,27.53
2022-12-22T04:20:07.014Z,27.43
2022-12-22T04:22:34.206Z,26.77
2022-12-22T04:25:01.399Z,27.93
2022-12-22T04:27:29.647Z,33.03
2022-12-22T04:29:56.787Z,31.73
2022-12-22T04:32:23.980Z,29.23
2022-12-22T04:34:51.272Z,30.47
2022-12-22T04:37:18.415Z,30.33
2022-12-22T04:39:45.636Z,33.40
2022-12-22T04:42:12.822Z,34.73
2022-12-22T04:44:40.234Z,39.93
2022-12-22T04:47:07.496Z,32.97
2022-12-22T04:49:34.669Z,33.40
2022-12-22T04:52:01.858Z,32.37
2022-12-22T04:54:29.007Z,32.17
2022-12-22T04:56:58.710Z,34.33
2022-12-22T04:59:28.920Z,42.60
2022-12-22T05:01:56.199Z,31.47
2022-12-22T05:04:23.941Z,33.87
2022-12-22T05:06:51.417Z,32.50
2022-12-22T05:09:18.537Z,30.53
2022-12-22T05:11:45.745Z,26.70
2022-12-22T05:14:13.007Z,38.97
2022-12-22T05:16:40.468Z,37.07
2022-12-22T05:19:08.115Z,39.47
2022-12-22T05:21:35.357Z,41.50
2022-12-22T05:24:02.745Z,44.50
2022-12-22T05:26:29.971Z,41.37
2022-12-22T05:28:57.385Z,36.63
2022-12-22T05:31:25.960Z,88.73
2022-12-22T05:33:53.469Z,34.97
2022-12-22T05:36:20.815Z,30.80
2022-12-22T05:38:48.082Z,32.23
2022-12-22T05:41:15.254Z,31.83
2022-12-22T05:43:42.532Z,35.87
2022-12-22T05:46:12.211Z,30.70
2022-12-22T05:48:42.099Z,32.13
2022-12-22T05:51:10.963Z,34.30
2022-12-22T05:53:39.380Z,31.57
2022-12-22T05:56:09.957Z,36.97
2022-12-22T05:58:38.998Z,44.93
2022-12-22T06:01:06.665Z,42.03
2022-12-22T06:03:34.441Z,61.23
2022-12-22T06:06:01.831Z,47.97
2022-12-22T06:08:29.085Z,55.00
2022-12-22T06:10:57.815Z,55.83
2022-12-22T06:13:26.020Z,46.97
2022-12-22T06:15:53.695Z,57.60
2022-12-22T06:18:20.996Z,72.77
2022-12-22T06:20:48.451Z,83.53
2022-12-22T06:23:15.587Z,74.27
2022-12-22T06:25:42.808Z,70.57
2022-12-22T06:28:10.108Z,53.80
2022-12-22T06:30:37.300Z,80.63
2022-12-22T06:33:04.507Z,91.70
2022-12-22T06:35:31.672Z,94.43
2022-12-22T06:38:01.733Z,88.00
2022-12-22T06:40:28.920Z,57.13
2022-12-22T06:43:11.195Z,57.93
2022-12-22T06:45:41.564Z,91.17
2022-12-22T06:48:13.463Z,117.60
2022-12-22T06:50:41.111Z,125.33
2022-12-22T06:53:09.432Z,84.83
2022-12-22T06:55:37.611Z,79.07
2022-12-22T06:58:05.756Z,71.80
2022-12-22T07:00:33.855Z,48.67
2022-12-22T07:03:01.538Z,63.90
2022-12-22T07:05:30.695Z,47.77
2022-12-22T07:08:02.512Z,56.03
2022-12-22T07:10:51.632Z,58.83
2022-12-22T07:13:21.816Z,59.33
2022-12-22T07:15:57.280Z,68.10
2022-12-22T07:18:28.284Z,51.10
2022-12-22T07:20:55.516Z,90.77
2022-12-22T07:23:22.884Z,75.93
2022-12-22T07:25:50.676Z,65.80
2022-12-22T07:28:20.948Z,74.87
2022-12-22T07:30:49.987Z,58.37
2022-12-22T07:33:17.971Z,89.63
2022-12-22T07:35:45.332Z,89.40
2022-12-22T07:38:13.261Z,95.53
2022-12-22T07:40:42.424Z,85.33
2022-12-22T07:43:10.739Z,68.73
2022-12-22T07:45:44.041Z,74.70
2022-12-22T07:48:31.160Z,81.63
2022-12-22T07:51:04.691Z,71.80
2022-12-22T07:53:34.234Z,113.00
2022-12-22T07:56:06.064Z,88.77
2022-12-22T07:58:33.765Z,68.07
2022-12-22T08:01:02.055Z,64.77
2022-12-22T08:03:29.474Z,49.93
2022-12-22T08:05:56.774Z,166.87
2022-12-22T08:08:23.977Z,87.37
2022-12-22T08:10:54.193Z,82.20
2022-12-22T08:13:21.414Z,74.30
2022-12-22T08:15:48.783Z,49.43
2022-12-22T08:18:16.031Z,44.67
2022-12-22T08:20:50.109Z,80.13
2022-12-22T08:23:17.492Z,49.73
2022-12-22T08:25:46.270Z,61.33
2022-12-22T08:28:15.752Z,44.97
2022-12-22T08:30:43.124Z,42.90
2022-12-22T08:33:10.613Z,46.90
2022-12-22T08:35:37.991Z,43.33
2022-12-22T08:38:05.943Z,48.70
2022-12-22T08:40:33.803Z,47.20
2022-12-22T08:43:05.482Z,111.40
2022-12-22T08:45:33.328Z,105.47
2022-12-22T08:48:00.618Z,106.60
2022-12-22T08:50:27.924Z,49.50
2022-12-22T08:53:06.031Z,45.77
2022-12-22T08:55:33.692Z,57.03
2022-12-22T08:58:00.844Z,87.10
2022-12-22T09:00:28.274Z,54.40
2022-12-22T09:02:56.173Z,71.33
2022-12-22T09:05:23.514Z,51.83
2022-12-22T09:07:50.679Z,39.40
2022-12-22T09:10:18.323Z,51.50
2022-12-22T09:12:48.129Z,56.17
2022-12-22T09:15:18.529Z,51.43
2022-12-22T09:17:48.384Z,41.03
2022-12-22T09:20:15.707Z,31.77
2022-12-22T09:22:42.897Z,36.50
2022-12-22T09:25:11.009Z,42.77
2022-12-22T09:27:38.240Z,95.63
2022-12-22T09:30:06.017Z,78.57
2022-12-22T09:32:33.138Z,37.60
2022-12-22T09:35:00.379Z,36.13
2022-12-22T09:37:27.655Z,23.80
2022-12-22T09:39:54.782Z,39.33
2022-12-22T09:42:24.167Z,39.13
2022-12-22T09:44:52.248Z,24.47
2022-12-22T09:47:22.936Z,43.80
2022-12-22T09:49:51.971Z,69.83
2022-12-22T09:52:42.183Z,26.20
2022-12-22T09:55:26.931Z,22.00
2022-12-22T09:57:54.925Z,29.50
2022-12-22T10:00:28.569Z,31.83
2022-12-22T10:03:04.752Z,44.47
2022-12-22T10:05:57.240Z,62.10
2022-12-22T10:08:34.473Z,55.83
2022-12-22T10:11:02.234Z,28.70
2022-12-22T10:13:29.585Z,22.67
2022-12-22T10:15:56.808Z,23.13
2022-12-22T10:18:27.362Z,24.40
2022-12-22T10:21:12.301Z,28.77
2022-12-22T10:23:47.526Z,33.60
2022-12-22T10:26:31.292Z,28.57
2022-12-22T10:29:09.303Z,20.30
2022-12-22T10:31:41.226Z,25.13
2022-12-22T10:34:18.031Z,28.33
2022-12-22T10:36:50.469Z,25.53
2022-12-22T10:39:24.192Z,22.80
2022-12-22T10:41:55.998Z,21.80
2022-12-22T10:44:32.429Z,20.03
2022-12-22T10:47:02.175Z,18.07
2022-12-22T10:52:19.129Z,43.33
2022-12-22T10:54:49.283Z,27.00
2022-12-22T10:57:19.258Z,24.40
2022-12-22T10:59:49.381Z,29.60
2022-12-22T11:02:28.570Z,23.17
2022-12-22T11:05:03.538Z,22.60
2022-12-22T11:07:37.276Z,28.37
2022-12-22T11:10:15.199Z,23.63
2022-12-22T11:13:07.389Z,22.50
2022-12-22T11:16:18.465Z,23.80
2022-12-22T11:19:32.547Z,36.23
2022-12-22T11:22:11.582Z,28.33
2022-12-22T11:25:10.682Z,60.37
2022-12-22T11:27:51.819Z,41.87
2022-12-22T11:30:35.018Z,43.53
2022-12-22T11:33:24.644Z,50.73
2022-12-22T11:36:38.583Z,42.43
2022-12-22T11:39:13.516Z,66.73
2022-12-22T11:42:20.238Z,34.67
2022-12-22T11:44:47.351Z,37.10
2022-12-22T11:47:27.004Z,23.00
2022-12-22T11:51:01.104Z,23.80
2022-12-22T11:53:32.306Z,22.00
2022-12-22T11:56:07.200Z,25.97
2022-12-22T11:58:56.766Z,28.43
2022-12-22T12:01:43.424Z,30.80
2022-12-22T12:04:32.142Z,31.23
2022-12-22T12:07:33.026Z,45.03
2022-12-22T12:10:15.237Z,50.73
2022-12-22T12:12:50.348Z,48.90
2022-12-22T12:15:32.714Z,64.63
2022-12-22T12:18:09.083Z,43.20
2022-12-22T12:20:57.641Z,36.93
2022-12-22T12:23:43.378Z,60.57
2022-12-22T12:26:31.672Z,62.43
2022-12-22T12:29:16.329Z,29.37
2022-12-22T12:32:02.688Z,19.17
2022-12-22T12:34:37.837Z,26.40
2022-12-22T12:37:26.591Z,33.57
2022-12-22T12:40:31.544Z,22.17
2022-12-22T12:43:00.858Z,21.10
2022-12-22T12:45:43.275Z,26.07
2022-12-22T12:48:22.481Z,30.40
2022-12-22T12:50:57.018Z,27.07
2022-12-22T12:53:26.253Z,20.57
2022-12-22T12:55:56.283Z,30.57
2022-12-22T12:58:35.985Z,21.80
2022-12-22T13:01:24.104Z,26.57
2022-12-22T13:04:06.727Z,22.97
2022-12-22T13:06:53.604Z,32.83
2022-12-22T13:09:50.001Z,33.43
2022-12-22T13:12:33.865Z,17.57
2022-12-22T13:15:02.199Z,34.43
2022-12-22T13:17:59.825Z,23.53
2022-12-22T13:20:35.441Z,26.90
2022-12-22T13:23:10.525Z,24.50
2022-12-22T13:25:40.964Z,28.57
2022-12-22T13:28:16.195Z,53.70
2022-12-22T13:31:01.110Z,68.37
2022-12-22T13:33:32.533Z,50.27
2022-12-22T13:36:00.620Z,34.77
2022-12-22T13:38:32.289Z,29.67
2022-12-22T13:41:02.836Z,32.93
2022-12-22T13:43:32.563Z,31.13
2022-12-22T13:46:02.880Z,34.40
2022-12-22T13:48:44.613Z,39.20
2022-12-22T13:51:20.173Z,50.47
2022-12-22T13:54:16.994Z,26.27
2022-12-22T13:56:53.445Z,33.57
2022-12-22T13:59:36.497Z,28.03
2022-12-22T14:02:12.784Z,57.87
2022-12-22T14:05:07.534Z,30.57
2022-12-22T14:07:34.687Z,53.57
2022-12-22T14:10:07.646Z,26.40
2022-12-22T14:12:42.408Z,27.33
2022-12-22T14:15:17.231Z,67.60
2022-12-22T14:17:52.192Z,27.40
2022-12-22T14:20:32.561Z,30.33
2022-12-22T14:23:08.389Z,56.47
2022-12-22T14:25:41.961Z,110.13
2022-12-22T14:28:50.405Z,98.77
2022-12-22T14:31:18.766Z,83.53
2022-12-22T14:34:24.011Z,75.37
2022-12-22T14:36:53.857Z,104.40
2022-12-22T14:39:24.985Z,84.27
2022-12-22T14:41:58.362Z,138.07
2022-12-22T14:44:25.634Z,101.07
2022-12-22T14:47:15.263Z,102.27
2022-12-22T14:49:49.996Z,51.10
2022-12-22T14:52:46.458Z,123.13
2022-12-22T14:55:34.723Z,116.50
2022-12-22T14:58:21.061Z,80.10
2022-12-22T15:01:09.781Z,78.93
2022-12-22T15:03:41.542Z,188.73
2022-12-22T15:06:27.648Z,107.37
2022-12-22T15:09:09.301Z,55.10
2022-12-22T15:11:39.093Z,43.23
2022-12-22T15:14:09.806Z,47.67
2022-12-22T15:16:37.040Z,44.97
2022-12-22T15:19:05.662Z,28.07
2022-12-22T15:21:33.875Z,51.37
2022-12-22T15:24:01.397Z,44.13
2022-12-22T15:26:31.803Z,42.73
2022-12-22T15:29:05.525Z,52.47
2022-12-22T15:31:32.970Z,39.83
2022-12-22T15:34:02.997Z,50.30
2022-12-22T15:36:30.319Z,59.57
2022-12-22T15:38:57.920Z,59.80
2022-12-22T15:41:25.812Z,66.40
2022-12-22T15:43:57.918Z,62.07
2022-12-22T15:46:26.369Z,69.87
2022-12-22T15:48:53.721Z,65.07
2022-12-22T15:51:28.508Z,66.40
2022-12-22T15:53:57.433Z,50.40
2022-12-22T15:56:26.925Z,46.57
2022-12-22T15:58:58.128Z,58.83
2022-12-22T16:01:25.421Z,58.37
2022-12-22T16:03:52.859Z,69.47
2022-12-22T16:06:20.656Z,69.40
2022-12-22T16:08:53.705Z,62.40
2022-12-22T16:11:21.337Z,138.23
2022-12-22T16:13:50.588Z,118.47
2022-12-22T16:16:18.208Z,79.10
2022-12-22T16:18:45.605Z,66.03
2022-12-22T16:21:17.172Z,63.97
2022-12-22T16:23:48.586Z,61.03
2022-12-22T16:26:20.627Z,59.93
2022-12-22T16:28:48.215Z,41.83
2022-12-22T16:31:19.681Z,56.33
2022-12-22T16:33:47.420Z,49.43
2022-12-22T16:36:14.778Z,67.33
2022-12-22T16:38:42.672Z,67.83
2022-12-22T16:41:30.762Z,60.80
2022-12-22T16:46:44.861Z,56.23
2022-12-22T16:49:22.887Z,43.13
2022-12-22T16:51:55.061Z,74.57
2022-12-22T16:54:22.450Z,37.50
2022-12-22T16:56:51.756Z,31.90
2022-12-22T16:59:19.402Z,28.20
2022-12-22T17:01:56.401Z,22.20
2022-12-22T17:04:28.139Z,18.50
2022-12-22T17:06:56.855Z,10.13
2022-12-22T17:09:31.194Z,19.63
2022-12-22T17:11:59.734Z,14.57
2022-12-22T17:14:35.384Z,15.93
2022-12-22T17:17:02.798Z,13.03
2022-12-22T17:19:30.169Z,14.37
2022-12-22T17:21:59.264Z,11.90
2022-12-22T17:24:28.564Z,28.43
2022-12-22T17:27:03.790Z,15.00
2022-12-22T17:29:31.602Z,16.73
2022-12-22T17:31:58.820Z,17.30
2022-12-22T17:34:26.755Z,46.67
2022-12-22T17:36:56.946Z,51.53
2022-12-22T17:39:24.237Z,28.43
2022-12-22T17:41:56.591Z,15.37
2022-12-22T17:44:26.924Z,35.43
2022-12-22T17:46:54.456Z,52.80
2022-12-22T17:49:22.939Z,41.80
2022-12-22T17:51:50.595Z,26.33
2022-12-22T17:54:28.017Z,44.97
2022-12-22T17:57:00.856Z,41.23
2022-12-22T17:59:28.553Z,42.67
2022-12-22T18:01:56.148Z,33.87
2022-12-22T18:04:23.476Z,20.23
2022-12-22T18:06:50.838Z,38.10
2022-12-22T18:09:24.560Z,35.07
2022-12-22T18:11:51.877Z,20.03
2022-12-22T18:14:22.382Z,26.47
2022-12-22T18:16:49.824Z,29.10
2022-12-22T18:19:17.161Z,28.53
2022-12-22T18:21:44.536Z,44.60
2022-12-22T18:24:19.954Z,27.67
2022-12-22T18:26:47.741Z,25.10
2022-12-22T18:29:16.405Z,23.97
2022-12-22T18:31:44.575Z,30.60
2022-12-22T18:34:12.672Z,24.67
2022-12-22T18:36:46.140Z,24.83
2022-12-22T18:39:20.403Z,27.07
2022-12-22T18:41:47.858Z,31.83
2022-12-22T18:44:19.179Z,37.67
2022-12-22T18:46:47.871Z,38.00
2022-12-22T18:49:15.190Z,43.83
2022-12-22T18:51:46.167Z,38.57
2022-12-22T18:54:32.676Z,43.03
2022-12-22T18:56:59.948Z,29.63
2022-12-22T18:59:33.217Z,25.33
2022-12-22T19:02:07.145Z,29.13
2022-12-22T19:04:34.384Z,20.87
2022-12-22T19:07:01.499Z,19.90
2022-12-22T19:09:28.711Z,20.83
2022-12-22T19:11:55.937Z,22.97
2022-12-22T19:14:23.361Z,28.43
2022-12-22T19:16:50.672Z,13.70
2022-12-22T19:19:19.557Z,26.13
2022-12-22T19:21:49.737Z,41.10
2022-12-22T19:24:16.938Z,53.10
2022-12-22T19:26:44.225Z,64.53
2022-12-22T19:29:14.111Z,66.17
2022-12-22T19:31:41.649Z,65.27
2022-12-22T19:34:16.838Z,99.30
2022-12-22T19:36:44.203Z,138.77
2022-12-22T19:39:11.463Z,139.63
2022-12-22T19:41:50.107Z,146.80
2022-12-22T19:44:25.388Z,246.03
2022-12-22T19:46:54.449Z,124.60
2022-12-22T19:49:24.871Z,193.93
2022-12-22T19:51:52.090Z,238.37
2022-12-22T19:54:19.969Z,262.30
2022-12-22T19:56:51.131Z,174.67
2022-12-22T19:59:55.800Z,232.03
2022-12-22T20:02:26.410Z,197.33
2022-12-22T20:04:55.018Z,140.80
2022-12-22T20:07:25.089Z,162.40
2022-12-22T20:09:52.916Z,98.60
2022-12-22T20:12:31.502Z,132.93
2022-12-22T20:14:59.258Z,142.17
2022-12-22T20:17:26.676Z,139.03
2022-12-22T20:19:54.253Z,76.67
2022-12-22T20:22:23.550Z,153.00
2022-12-22T20:24:52.162Z,433.17
2022-12-22T20:27:24.697Z,357.57
2022-12-22T20:29:51.874Z,269.40
2022-12-22T20:32:27.149Z,290.33
2022-12-22T20:34:55.510Z,632.40
2022-12-22T20:37:23.324Z,601.83
2022-12-22T20:39:50.619Z,438.27
2022-12-22T20:42:24.918Z,241.70
2022-12-22T20:45:02.878Z,135.13
2022-12-22T20:47:33.707Z,61.93
2022-12-22T20:50:01.355Z,36.40
2022-12-22T20:52:28.521Z,15.23
2022-12-22T20:54:55.786Z,11.90
2022-12-22T20:57:23.943Z,8.73
2022-12-22T20:59:56.079Z,7.43
2022-12-22T21:02:28.546Z,6.03
2022-12-22T21:04:56.234Z,7.37
2022-12-22T21:07:23.861Z,7.87
2022-12-22T21:09:51.097Z,5.93
2022-12-22T21:12:18.194Z,7.00
2022-12-22T21:14:45.521Z,5.70
2022-12-22T21:17:19.815Z,6.82
2022-12-22T21:19:47.070Z,5.67
2022-12-22T21:22:14.438Z,4.90
2022-12-22T21:24:42.086Z,6.37
2022-12-22T21:27:16.187Z,3.87
2022-12-22T21:29:43.331Z,3.73
2022-12-22T21:32:17.143Z,6.10
2022-12-22T21:34:44.308Z,7.17
2022-12-22T21:37:18.559Z,6.63
2022-12-22T21:39:46.029Z,7.10
2022-12-22T21:42:17.963Z,7.00
2022-12-22T21:44:45.682Z,6.90
2022-12-22T21:47:14.675Z,6.27
2022-12-22T21:49:41.950Z,7.83
2022-12-22T21:52:09.182Z,6.53
2022-12-22T21:54:39.511Z,5.53
2022-12-22T21:57:06.706Z,6.93
2022-12-22T21:59:33.824Z,6.17
2022-12-22T22:02:01.146Z,5.13
2022-12-22T22:04:28.376Z,5.50
2022-12-22T22:06:55.500Z,6.10
2022-12-22T22:09:22.694Z,5.30
2022-12-22T22:12:08.479Z,5.00
2022-12-22T22:14:36.097Z,4.33
2022-12-22T22:17:03.366Z,5.83
2022-12-22T22:19:31.153Z,5.17
2022-12-22T22:21:58.359Z,8.03
2022-12-22T22:24:25.524Z,5.70
2022-12-22T22:26:52.860Z,5.57
2022-12-22T22:29:20.116Z,7.17
2022-12-22T22:31:47.535Z,5.73
2022-12-22T22:34:16.108Z,4.93
2022-12-22T22:36:43.208Z,4.87
2022-12-22T22:39:10.597Z,5.00
2022-12-22T22:41:42.961Z,4.57
2022-12-22T22:44:11.137Z,4.87
2022-12-22T22:46:38.405Z,4.30
2022-12-22T22:49:06.040Z,3.87
2022-12-22T22:51:33.936Z,5.80
2022-12-22T22:54:01.270Z,4.73
2022-12-22T22:56:28.412Z,5.87
2022-12-22T22:58:55.632Z,5.10
2022-12-22T23:01:22.760Z,7.33
2022-12-22T23:03:50.042Z,6.20
2022-12-22T23:06:17.352Z,5.33
2022-12-22T23:08:44.482Z,5.90
2022-12-22T23:11:15.512Z,6.23
2022-12-22T23:13:43.389Z,6.23
2022-12-22T23:16:11.547Z,7.20
2022-12-22T23:18:39.168Z,7.43
2022-12-22T23:21:07.878Z,8.23
2022-12-22T23:23:36.039Z,8.00
2022-12-22T23:26:03.339Z,7.83
2022-12-22T23:28:30.836Z,7.93
2022-12-22T23:30:58.049Z,7.67
2022-12-22T23:33:25.260Z,8.20
2022-12-22T23:35:52.800Z,9.23
2022-12-22T23:38:21.172Z,10.67
2022-12-22T23:40:55.962Z,7.23
2022-12-22T23:43:23.252Z,7.80
2022-12-22T23:45:50.528Z,8.60
2022-12-22T23:48:17.749Z,7.47
2022-12-22T23:50:48.718Z,7.30
2022-12-22T23:53:18.770Z,8.97
2022-12-22T23:55:49.743Z,7.43
2022-12-22T23:58:17.945Z,9.33
